createdAt,value
2019-05-14T00:00:35.379Z,81.80
2019-05-14T00:03:02.542Z,81.30
2019-05-14T00:05:31.988Z,82.40
2019-05-14T00:07:58.520Z,81.50
2019-05-14T00:10:25.372Z,81.60
2019-05-14T00:12:52.388Z,82.80
2019-05-14T00:15:21.504Z,83.50
2019-05-14T00:17:47.935Z,83.20
2019-05-14T00:20:15.015Z,82.60
2019-05-14T00:22:41.915Z,83.80
2019-05-14T00:25:11.480Z,83.80
2019-05-14T00:27:38.015Z,83.90
2019-05-14T00:30:05.671Z,83.80
2019-05-14T00:32:32.537Z,84.70
2019-05-14T00:35:01.708Z,84.20
2019-05-14T00:37:28.184Z,84.40
2019-05-14T00:39:54.887Z,84.60
2019-05-14T00:42:21.863Z,84.50
2019-05-14T00:44:54.341Z,85.00
2019-05-14T00:47:17.387Z,85.50
2019-05-14T00:49:44.264Z,85.90
2019-05-14T00:52:11.794Z,86.10
2019-05-14T00:54:38.732Z,86.10
2019-05-14T00:57:05.711Z,86.80
2019-05-14T00:59:32.584Z,88.20
2019-05-14T01:02:02.653Z,87.50
2019-05-14T01:04:28.120Z,88.00
2019-05-14T01:06:54.983Z,88.00
2019-05-14T01:09:21.999Z,88.20
2019-05-14T01:11:51.123Z,88.50
2019-05-14T01:14:17.682Z,88.70
2019-05-14T01:16:44.670Z,89.20
2019-05-14T01:19:12.429Z,89.10
2019-05-14T01:21:41.616Z,90.00
2019-05-14T01:24:08.187Z,89.80
2019-05-14T01:26:35.211Z,90.30
2019-05-14T01:29:02.153Z,90.10
2019-05-14T01:31:31.304Z,90.80
2019-05-14T01:33:57.811Z,90.40
2019-05-14T01:36:24.583Z,90.80
2019-05-14T01:38:51.557Z,90.40
2019-05-14T01:41:18.358Z,90.60
2019-05-14T01:43:45.257Z,90.70
2019-05-14T01:46:12.283Z,90.80
2019-05-14T01:48:39.058Z,90.90
2019-05-14T01:51:05.959Z,91.10
2019-05-14T01:53:32.699Z,91.30
2019-05-14T01:56:01.735Z,91.40
2019-05-14T01:58:30.680Z,91.60
2019-05-14T02:00:57.447Z,91.80
2019-05-14T02:03:24.196Z,91.90
2019-05-14T02:05:52.211Z,92.20
2019-05-14T02:08:21.280Z,92.50
2019-05-14T02:10:48.173Z,92.50
2019-05-14T02:13:15.023Z,92.60
2019-05-14T02:15:42.962Z,92.90
2019-05-14T02:18:11.134Z,92.80
2019-05-14T02:20:37.995Z,92.90
2019-05-14T02:23:04.875Z,93.00
2019-05-14T02:25:32.271Z,93.20
2019-05-14T02:28:01.371Z,93.30
2019-05-14T02:30:40.759Z,93.40
2019-05-14T02:32:59.433Z,93.70
2019-05-14T02:35:25.728Z,93.90
2019-05-14T02:37:53.472Z,94.10
2019-05-14T02:40:20.669Z,94.10
2019-05-14T02:42:49.763Z,94.20
2019-05-14T02:45:19.535Z,94.20
2019-05-14T02:47:45.147Z,94.50
2019-05-14T02:50:12.279Z,94.60
2019-05-14T02:52:40.153Z,94.50
2019-05-14T02:55:09.382Z,94.70
2019-05-14T02:57:39.191Z,94.80
2019-05-14T03:00:09.805Z,95.00
2019-05-14T03:02:35.599Z,95.00
2019-05-14T03:05:03.104Z,95.30
2019-05-14T03:07:29.979Z,95.40
2019-05-14T03:09:59.347Z,95.60
2019-05-14T03:12:25.928Z,95.90
2019-05-14T03:14:52.951Z,96.10
2019-05-14T03:17:20.307Z,96.30
2019-05-14T03:19:49.665Z,96.40
2019-05-14T03:22:24.728Z,96.60
2019-05-14T03:24:45.609Z,96.80
2019-05-14T03:27:12.671Z,97.00
2019-05-14T03:29:40.264Z,97.20
2019-05-14T03:32:12.672Z,97.20
2019-05-14T03:34:42.062Z,97.30
2019-05-14T03:37:05.342Z,97.50
2019-05-14T03:39:32.465Z,97.60
2019-05-14T03:41:59.485Z,97.80
2019-05-14T03:44:29.205Z,98.10
2019-05-14T03:47:00.226Z,98.10
2019-05-14T03:49:24.051Z,98.50
2019-05-14T03:51:50.997Z,98.50
2019-05-14T03:54:19.479Z,98.70
2019-05-14T03:56:49.736Z,98.90
2019-05-14T03:59:15.870Z,99.00
2019-05-14T04:01:43.132Z,99.30
2019-05-14T04:04:10.619Z,99.50
2019-05-14T04:06:40.349Z,99.50
2019-05-14T04:09:09.718Z,99.70
2019-05-14T04:11:39.860Z,99.70
2019-05-14T04:14:10.602Z,99.90
2019-05-14T04:16:39.921Z,99.90
2019-05-14T04:19:10.428Z,99.90
2019-05-14T04:21:39.926Z,99.90
2019-05-14T04:24:10.696Z,99.90
2019-05-14T04:26:56.141Z,99.90
2019-05-14T04:29:11.952Z,99.90
2019-05-14T04:31:40.917Z,99.90
2019-05-14T04:34:10.689Z,99.90
2019-05-14T04:36:39.178Z,99.90
2019-05-14T04:39:09.553Z,99.90
2019-05-14T04:41:35.417Z,99.90
2019-05-14T04:44:02.379Z,99.90
2019-05-14T04:46:30.479Z,99.90
2019-05-14T04:48:59.186Z,99.90
2019-05-14T04:51:26.294Z,99.90
2019-05-14T04:53:53.232Z,99.90
2019-05-14T04:56:20.144Z,99.80
2019-05-14T04:58:49.599Z,99.50
2019-05-14T05:01:16.068Z,99.70
2019-05-14T05:03:42.948Z,99.40
2019-05-14T05:06:10.173Z,99.70
2019-05-14T05:08:39.453Z,99.30
2019-05-14T05:11:09.103Z,99.20
2019-05-14T05:13:34.832Z,99.10
2019-05-14T05:16:01.681Z,99.00
2019-05-14T05:18:29.555Z,98.90
2019-05-14T05:20:58.327Z,98.80
2019-05-14T05:23:25.363Z,98.70
2019-05-14T05:25:52.159Z,98.80
2019-05-14T05:28:19.233Z,98.80
2019-05-14T05:30:46.208Z,99.00
2019-05-14T05:33:13.110Z,98.90
2019-05-14T05:35:42.308Z,98.70
2019-05-14T05:38:08.826Z,98.40
2019-05-14T05:40:35.755Z,98.20
2019-05-14T05:43:02.760Z,97.40
2019-05-14T05:45:29.645Z,96.60
2019-05-14T05:48:01.021Z,95.70
2019-05-14T05:50:25.170Z,95.60
2019-05-14T05:52:53.876Z,95.30
2019-05-14T05:55:20.961Z,95.00
2019-05-14T05:57:49.213Z,94.20
2019-05-14T06:00:30.499Z,93.70
2019-05-14T06:02:59.124Z,93.30
2019-05-14T06:05:26.292Z,92.90
2019-05-14T06:07:53.143Z,92.10
2019-05-14T06:10:19.888Z,91.40
2019-05-14T06:12:48.923Z,90.60
2019-05-14T06:15:15.467Z,89.30
2019-05-14T06:17:42.330Z,87.80
2019-05-14T06:20:09.503Z,85.70
2019-05-14T06:22:38.389Z,84.90
2019-05-14T06:25:10.535Z,83.20
2019-05-14T06:27:34.535Z,80.30
2019-05-14T06:30:01.375Z,80.00
2019-05-14T06:32:29.023Z,77.20
2019-05-14T06:34:56.080Z,74.80
2019-05-14T06:37:22.936Z,71.00
2019-05-14T06:39:49.802Z,69.60
2019-05-14T06:42:19.063Z,69.10
2019-05-14T06:44:45.568Z,68.50
2019-05-14T06:47:12.296Z,71.40
2019-05-14T06:49:39.034Z,72.90
2019-05-14T06:52:08.436Z,72.10
2019-05-14T06:54:34.551Z,70.60
2019-05-14T06:57:01.448Z,69.60
2019-05-14T06:59:28.916Z,66.70
2019-05-14T07:01:57.870Z,64.40
2019-05-14T07:04:24.797Z,62.10
2019-05-14T07:06:51.549Z,60.10
2019-05-14T07:09:18.569Z,60.10
2019-05-14T07:11:45.344Z,58.80
2019-05-14T07:14:12.112Z,58.80
2019-05-14T07:16:39.192Z,58.90
2019-05-14T07:19:06.235Z,59.60
2019-05-14T07:21:33.045Z,60.40
2019-05-14T07:23:59.889Z,59.30
2019-05-14T07:26:29.315Z,59.80
2019-05-14T07:28:55.491Z,58.90
2019-05-14T07:31:22.238Z,57.20
2019-05-14T07:33:49.585Z,57.00
2019-05-14T07:36:18.850Z,56.30
2019-05-14T07:38:45.436Z,56.00
2019-05-14T07:41:12.202Z,57.00
2019-05-14T07:43:39.458Z,57.30
2019-05-14T07:46:08.504Z,57.30
2019-05-14T07:48:35.564Z,56.20
2019-05-14T07:51:02.432Z,55.70
2019-05-14T07:53:38.543Z,54.60
2019-05-14T07:55:59.143Z,54.70
2019-05-14T07:58:28.239Z,55.60
2019-05-14T08:00:55.112Z,54.20
2019-05-14T08:03:21.981Z,53.40
2019-05-14T08:05:48.847Z,54.20
2019-05-14T08:08:15.600Z,55.80
2019-05-14T08:10:42.463Z,56.80
2019-05-14T08:13:09.460Z,56.50
2019-05-14T08:15:38.525Z,55.90
2019-05-14T08:18:05.258Z,54.80
2019-05-14T08:20:32.111Z,54.70
2019-05-14T08:22:58.943Z,54.80
2019-05-14T08:25:28.135Z,53.90
2019-05-14T08:27:54.552Z,53.80
2019-05-14T08:30:21.859Z,52.00
2019-05-14T08:32:48.982Z,53.70
2019-05-14T08:35:18.419Z,54.50
2019-05-14T08:37:44.996Z,53.80
2019-05-14T08:40:16.418Z,54.20
2019-05-14T08:42:40.925Z,54.00
2019-05-14T08:45:10.654Z,51.70
2019-05-14T08:47:39.086Z,50.60
2019-05-14T08:50:08.835Z,49.80
2019-05-14T08:52:34.946Z,48.50
2019-05-14T08:55:10.174Z,48.30
2019-05-14T08:57:30.622Z,48.50
2019-05-14T08:59:59.414Z,48.80
2019-05-14T09:02:28.506Z,47.40
2019-05-14T09:04:55.424Z,49.40
2019-05-14T09:07:22.412Z,47.90
2019-05-14T09:09:49.137Z,47.40
2019-05-14T09:12:16.082Z,45.50
2019-05-14T09:14:42.823Z,45.60
2019-05-14T09:17:10.014Z,46.30
2019-05-14T09:19:39.222Z,47.50
2019-05-14T09:22:05.658Z,44.80
2019-05-14T09:24:32.520Z,46.10
2019-05-14T09:26:59.562Z,45.50
2019-05-14T09:29:29.595Z,44.00
2019-05-14T09:31:55.120Z,44.50
2019-05-14T09:34:21.856Z,44.10
2019-05-14T09:36:49.061Z,42.30
2019-05-14T09:39:18.598Z,42.40
2019-05-14T09:41:44.650Z,43.50
2019-05-14T09:44:11.559Z,43.00
2019-05-14T09:46:38.589Z,41.00
2019-05-14T09:49:07.634Z,41.00
2019-05-14T09:51:34.226Z,39.70
2019-05-14T09:54:01.071Z,37.90
2019-05-14T09:56:29.114Z,36.40
2019-05-14T09:58:58.488Z,35.60
2019-05-14T10:01:24.872Z,36.70
2019-05-14T10:03:51.630Z,37.20
2019-05-14T10:06:20.562Z,39.00
2019-05-14T10:08:48.538Z,40.00
2019-05-14T10:11:15.574Z,43.40
2019-05-14T10:13:42.357Z,45.20
2019-05-14T10:16:09.698Z,46.40
2019-05-14T10:18:38.044Z,44.60
2019-05-14T10:21:05.256Z,43.60
2019-05-14T10:23:32.120Z,42.00
2019-05-14T10:25:59.097Z,41.80
2019-05-14T10:28:28.618Z,41.90
2019-05-14T10:30:54.853Z,40.40
2019-05-14T10:33:21.627Z,38.40
2019-05-14T10:35:48.664Z,38.00
2019-05-14T10:38:15.780Z,40.10
2019-05-14T10:40:42.639Z,39.80
2019-05-14T10:43:09.667Z,39.30
2019-05-14T10:45:38.440Z,40.10
2019-05-14T10:48:05.477Z,41.90
2019-05-14T10:50:32.332Z,43.70
2019-05-14T10:52:59.752Z,45.60
2019-05-14T10:55:27.969Z,47.70
2019-05-14T10:57:54.947Z,47.40
2019-05-14T11:00:22.031Z,44.10
2019-05-14T11:02:49.269Z,40.40
2019-05-14T11:05:18.707Z,39.10
2019-05-14T11:07:47.987Z,37.80
2019-05-14T11:10:15.449Z,37.60
2019-05-14T11:12:42.204Z,37.30
2019-05-14T11:15:09.387Z,36.20
2019-05-14T11:17:36.191Z,35.80
2019-05-14T11:20:03.461Z,35.60
2019-05-14T11:22:30.408Z,36.30
2019-05-14T11:24:59.152Z,37.10
2019-05-14T11:27:26.118Z,37.80
2019-05-14T11:29:52.989Z,36.90
2019-05-14T11:32:19.936Z,36.10
2019-05-14T11:34:46.779Z,38.10
2019-05-14T11:37:14.963Z,39.50
2019-05-14T11:39:41.839Z,41.70
2019-05-14T11:42:08.745Z,43.30
2019-05-14T11:44:37.987Z,43.60
2019-05-14T11:47:04.644Z,43.20
2019-05-14T11:49:31.647Z,43.50
2019-05-14T11:52:06.876Z,41.90
2019-05-14T11:54:29.215Z,43.10
2019-05-14T11:56:55.892Z,44.80
2019-05-14T11:59:22.659Z,45.70
2019-05-14T12:01:49.572Z,46.50
2019-05-14T12:04:18.673Z,45.50
2019-05-14T12:06:45.248Z,43.80
2019-05-14T12:09:12.235Z,43.40
2019-05-14T12:11:39.048Z,45.80
2019-05-14T12:14:08.597Z,46.20
2019-05-14T12:16:34.854Z,47.30
2019-05-14T12:19:01.739Z,47.30
2019-05-14T12:21:28.925Z,47.60
2019-05-14T12:24:03.062Z,46.40
2019-05-14T12:26:24.863Z,44.80
2019-05-14T12:28:51.643Z,42.30
2019-05-14T12:31:18.491Z,41.20
2019-05-14T12:33:45.307Z,42.20
2019-05-14T12:36:12.160Z,42.60
2019-05-14T12:38:39.133Z,43.60
2019-05-14T12:41:08.941Z,45.00
2019-05-14T12:43:35.016Z,45.50
2019-05-14T12:46:01.779Z,45.80
2019-05-14T12:48:29.813Z,47.20
2019-05-14T12:50:59.382Z,46.00
2019-05-14T12:53:28.506Z,47.20
2019-05-14T12:55:54.510Z,47.20
2019-05-14T12:58:21.508Z,47.00
2019-05-14T13:00:48.825Z,47.70
2019-05-14T13:03:15.801Z,48.80
2019-05-14T13:05:42.765Z,48.20
2019-05-14T13:08:11.456Z,47.70
2019-05-14T13:10:38.664Z,49.70
2019-05-14T13:13:08.221Z,49.20
2019-05-14T13:15:34.635Z,48.30
2019-05-14T13:18:01.502Z,47.70
2019-05-14T13:20:29.082Z,48.10
2019-05-14T13:22:56.144Z,48.60
2019-05-14T13:25:23.103Z,48.70
2019-05-14T13:27:49.962Z,49.30
2019-05-14T13:30:18.609Z,48.80
2019-05-14T13:32:45.571Z,50.10
2019-05-14T13:35:14.025Z,48.00
2019-05-14T13:37:40.851Z,47.20
2019-05-14T13:40:09.569Z,45.20
2019-05-14T13:42:38.874Z,44.40
2019-05-14T13:45:05.970Z,43.50
2019-05-14T13:47:32.862Z,45.30
2019-05-14T13:49:59.848Z,46.20
2019-05-14T13:52:29.229Z,46.50
2019-05-14T13:54:55.637Z,46.90
2019-05-14T13:57:22.567Z,46.60
2019-05-14T13:59:49.741Z,47.00
2019-05-14T14:02:18.915Z,45.80
2019-05-14T14:04:45.394Z,44.50
2019-05-14T14:07:12.674Z,45.50
2019-05-14T14:09:39.754Z,45.50
2019-05-14T14:12:08.228Z,45.10
2019-05-14T14:14:35.374Z,45.30
2019-05-14T14:17:02.260Z,45.80
2019-05-14T14:19:29.120Z,45.90
2019-05-14T14:21:58.855Z,46.30
2019-05-14T14:24:24.952Z,46.80
2019-05-14T14:26:51.824Z,46.10
2019-05-14T14:29:18.943Z,46.80
2019-05-14T14:31:45.871Z,45.80
2019-05-14T14:34:18.020Z,45.00
2019-05-14T14:36:44.355Z,45.80
2019-05-14T14:39:11.095Z,46.10
2019-05-14T14:41:38.493Z,44.60
2019-05-14T14:44:08.564Z,43.50
2019-05-14T14:46:34.627Z,44.50
2019-05-14T14:49:02.702Z,43.00
2019-05-14T14:51:29.784Z,44.80
2019-05-14T14:54:02.847Z,44.20
2019-05-14T14:56:25.467Z,45.70
2019-05-14T14:58:52.352Z,45.50
2019-05-14T15:01:19.871Z,45.50
2019-05-14T15:03:49.568Z,45.10
2019-05-14T15:06:15.908Z,45.20
2019-05-14T15:08:42.643Z,44.40
2019-05-14T15:11:09.507Z,45.20
2019-05-14T15:13:38.591Z,45.60
2019-05-14T15:16:05.250Z,44.70
2019-05-14T15:18:32.179Z,45.20
2019-05-14T15:20:59.159Z,47.10
2019-05-14T15:23:28.500Z,45.90
2019-05-14T15:25:54.972Z,45.20
2019-05-14T15:28:21.827Z,45.80
2019-05-14T15:30:49.920Z,46.00
2019-05-14T15:33:18.938Z,46.40
2019-05-14T15:35:45.856Z,44.60
2019-05-14T15:38:12.709Z,44.50
2019-05-14T15:40:39.950Z,45.00
2019-05-14T15:43:09.867Z,46.00
2019-05-14T15:45:37.755Z,47.10
2019-05-14T15:48:04.516Z,47.10
2019-05-14T15:50:32.855Z,48.30
2019-05-14T15:53:00.189Z,47.40
2019-05-14T15:55:28.913Z,46.90
2019-05-14T15:57:58.915Z,45.90
2019-05-14T16:00:24.767Z,46.00
2019-05-14T16:02:51.501Z,45.80
2019-05-14T16:05:18.966Z,47.80
2019-05-14T16:07:49.229Z,48.50
2019-05-14T16:10:15.339Z,48.50
2019-05-14T16:12:42.239Z,48.10
2019-05-14T16:15:09.625Z,48.80
2019-05-14T16:17:45.374Z,49.10
2019-05-14T16:20:08.950Z,48.90
2019-05-14T16:22:35.394Z,49.00
2019-05-14T16:25:02.288Z,49.40
2019-05-14T16:27:29.926Z,49.30
2019-05-14T16:29:58.667Z,50.00
2019-05-14T16:32:28.364Z,50.00
2019-05-14T16:34:55.100Z,50.70
2019-05-14T16:37:23.831Z,50.70
2019-05-14T16:39:50.553Z,50.30
2019-05-14T16:42:20.743Z,50.60
2019-05-14T16:44:46.233Z,50.60
2019-05-14T16:47:13.091Z,49.30
2019-05-14T16:49:39.957Z,49.10
2019-05-14T16:52:09.066Z,49.20
2019-05-14T16:54:35.552Z,49.30
2019-05-14T16:57:02.405Z,49.60
2019-05-14T16:59:29.730Z,49.40
2019-05-14T17:01:58.508Z,49.30
2019-05-14T17:04:25.507Z,49.60
2019-05-14T17:06:52.370Z,49.30
2019-05-14T17:09:19.242Z,49.80
2019-05-14T17:11:48.199Z,50.20
2019-05-14T17:14:15.160Z,50.80
2019-05-14T17:16:42.192Z,51.10
2019-05-14T17:19:09.392Z,51.40
2019-05-14T17:21:38.882Z,51.80
2019-05-14T17:24:05.203Z,51.70
2019-05-14T17:26:31.987Z,51.60
2019-05-14T17:28:59.615Z,52.00
2019-05-14T17:31:26.698Z,52.70
2019-05-14T17:33:53.646Z,53.20
2019-05-14T17:36:20.549Z,54.10
2019-05-14T17:38:49.265Z,52.40
2019-05-14T17:41:16.044Z,51.30
2019-05-14T17:43:43.027Z,51.50
2019-05-14T17:46:10.164Z,52.20
2019-05-14T17:48:39.066Z,52.90
2019-05-14T17:51:06.083Z,53.90
2019-05-14T17:53:32.989Z,54.00
2019-05-14T17:55:59.743Z,54.60
2019-05-14T17:58:28.600Z,54.40
2019-05-14T18:00:58.010Z,54.50
2019-05-14T18:03:24.189Z,54.80
2019-05-14T18:05:51.096Z,55.30
2019-05-14T18:08:18.596Z,55.50
2019-05-14T18:10:45.644Z,55.90
2019-05-14T18:13:12.507Z,56.30
2019-05-14T18:15:39.640Z,56.40
2019-05-14T18:18:08.870Z,57.30
2019-05-14T18:20:35.694Z,57.20
2019-05-14T18:23:02.495Z,57.60
2019-05-14T18:25:29.381Z,58.70
2019-05-14T18:27:56.234Z,58.30
2019-05-14T18:30:23.095Z,58.80
2019-05-14T18:32:50.123Z,59.30
2019-05-14T18:35:18.792Z,59.50
2019-05-14T18:37:48.132Z,60.10
2019-05-14T18:40:15.079Z,59.90
2019-05-14T18:42:41.859Z,60.70
2019-05-14T18:45:09.313Z,61.10
2019-05-14T18:47:36.084Z,62.10
2019-05-14T18:50:04.273Z,62.30
2019-05-14T18:52:31.240Z,63.10
2019-05-14T18:54:59.079Z,64.00
2019-05-14T18:57:28.503Z,64.50
2019-05-14T18:59:55.106Z,64.60
2019-05-14T19:02:22.186Z,65.40
2019-05-14T19:04:49.026Z,65.70
2019-05-14T19:07:15.911Z,66.20
2019-05-14T19:09:42.774Z,65.30
2019-05-14T19:12:09.835Z,65.90
2019-05-14T19:14:38.784Z,67.00
2019-05-14T19:17:05.587Z,68.30
2019-05-14T19:19:32.471Z,69.90
2019-05-14T19:21:59.443Z,70.30
2019-05-14T19:24:28.490Z,70.90
2019-05-14T19:26:55.359Z,71.10
2019-05-14T19:29:22.131Z,71.60
2019-05-14T19:31:49.031Z,72.30
2019-05-14T19:34:16.231Z,72.50
2019-05-14T19:36:43.243Z,73.30
2019-05-14T19:39:10.327Z,73.90
2019-05-14T19:41:40.325Z,75.10
2019-05-14T19:44:09.153Z,75.40
2019-05-14T19:46:38.611Z,75.70
2019-05-14T19:49:08.142Z,76.40
2019-05-14T19:51:39.244Z,77.20
2019-05-14T19:54:08.301Z,77.70
2019-05-14T19:56:52.429Z,78.60
2019-05-14T19:59:18.335Z,79.20
2019-05-14T20:01:52.238Z,80.00
2019-05-14T20:04:19.312Z,80.70
2019-05-14T20:06:46.352Z,80.90
2019-05-14T20:09:13.228Z,81.40
2019-05-14T20:11:40.231Z,81.70
2019-05-14T20:14:06.943Z,82.80
2019-05-14T20:16:33.815Z,83.40
2019-05-14T20:19:00.764Z,84.50
2019-05-14T20:21:28.325Z,85.40
2019-05-14T20:23:55.306Z,87.00
2019-05-14T20:26:22.215Z,88.00
2019-05-14T20:28:49.147Z,88.80
2019-05-14T20:31:17.946Z,89.80
2019-05-14T20:33:44.668Z,90.30
2019-05-14T20:36:12.168Z,90.60
2019-05-14T20:38:39.063Z,90.90
2019-05-14T20:41:06.068Z,91.10
2019-05-14T20:43:33.151Z,91.40
2019-05-14T20:46:00.138Z,91.70
2019-05-14T20:48:28.159Z,92.10
2019-05-14T20:50:55.128Z,92.40
2019-05-14T20:53:22.097Z,92.60
2019-05-14T20:55:49.095Z,92.80
2019-05-14T20:58:15.995Z,92.80
2019-05-14T21:00:42.927Z,92.90
2019-05-14T21:03:09.916Z,92.80
2019-05-14T21:05:38.898Z,92.80
2019-05-14T21:08:05.641Z,93.10
2019-05-14T21:10:32.502Z,93.30
2019-05-14T21:12:59.407Z,93.10
2019-05-14T21:15:28.667Z,93.30
2019-05-14T21:17:54.978Z,93.40
2019-05-14T21:20:21.811Z,93.50
2019-05-14T21:22:48.655Z,93.50
2019-05-14T21:25:18.267Z,93.60
2019-05-14T21:27:48.714Z,93.80
2019-05-14T21:30:13.755Z,93.70
2019-05-14T21:32:42.549Z,93.80
2019-05-14T21:35:09.559Z,93.90
2019-05-14T21:37:39.016Z,94.00
2019-05-14T21:40:06.256Z,94.00
2019-05-14T21:42:33.069Z,94.20
2019-05-14T21:44:59.975Z,94.20
2019-05-14T21:47:28.549Z,94.10
2019-05-14T21:49:55.567Z,94.30
2019-05-14T21:52:22.417Z,94.30
2019-05-14T21:54:49.287Z,94.40
2019-05-14T21:57:16.075Z,94.50
2019-05-14T21:59:42.819Z,94.70
2019-05-14T22:02:21.810Z,94.80
2019-05-14T22:04:39.689Z,94.90
2019-05-14T22:07:06.488Z,94.90
2019-05-14T22:09:34.166Z,95.00
2019-05-14T22:12:01.007Z,95.50
2019-05-14T22:14:28.356Z,95.40
2019-05-14T22:16:55.294Z,95.60
2019-05-14T22:19:22.146Z,95.50
2019-05-14T22:21:49.198Z,95.50
2019-05-14T22:24:16.323Z,95.40
2019-05-14T22:26:43.193Z,95.40
2019-05-14T22:29:09.943Z,95.40
2019-05-14T22:31:38.773Z,95.20
2019-05-14T22:34:05.680Z,95.20
2019-05-14T22:36:32.552Z,95.30
2019-05-14T22:38:59.447Z,95.10
2019-05-14T22:41:28.934Z,95.30
2019-05-14T22:43:56.980Z,95.20
2019-05-14T22:46:24.051Z,95.20
2019-05-14T22:48:51.692Z,95.30
2019-05-14T22:51:19.027Z,95.20
2019-05-14T22:53:45.978Z,95.30
2019-05-14T22:56:12.807Z,95.40
2019-05-14T22:58:39.556Z,95.30
2019-05-14T23:01:14.611Z,95.40
2019-05-14T23:03:35.630Z,95.40
2019-05-14T23:06:02.499Z,95.60
2019-05-14T23:08:29.683Z,95.50
2019-05-14T23:10:58.827Z,95.70
2019-05-14T23:13:25.070Z,95.80
2019-05-14T23:15:51.807Z,95.80
2019-05-14T23:18:18.650Z,96.10
2019-05-14T23:20:45.611Z,96.40
2019-05-14T23:23:12.649Z,96.70
2019-05-14T23:25:39.367Z,96.70
2019-05-14T23:28:08.331Z,96.70
2019-05-14T23:30:34.973Z,96.80
2019-05-14T23:33:01.717Z,96.70
2019-05-14T23:35:29.131Z,96.80
2019-05-14T23:37:58.626Z,96.80
2019-05-14T23:40:24.960Z,96.80
2019-05-14T23:42:52.211Z,96.70
2019-05-14T23:45:19.217Z,96.70
2019-05-14T23:47:48.709Z,96.70
2019-05-14T23:50:15.088Z,96.50
2019-05-14T23:52:42.010Z,96.80
2019-05-14T23:55:09.691Z,96.70
2019-05-14T23:57:36.792Z,97.30
